Time;durP1;ratioP1;P1;durP2;ratioP2;P2;SDS_P1;SDS_P2;PMS_P1;PMS_P2;Temp;Humidity;BMP_temperature;BMP_pressure;BME280_temperature;BME280_humidity;BME280_pressure;Samples;Min_cycle;Max_cycle;Signal;HPM_P1;HPM_P2
2022/07/28 00:01:54;;;;;;;6.35;2.20;;;12.90;99.90;;;;;;4965946;28;20569;-89
2022/07/28 00:04:20;;;;;;;7.60;1.88;;;12.90;99.90;;;;;;4935168;28;20044;-88
2022/07/28 00:06:46;;;;;;;6.97;1.98;;;12.90;99.90;;;;;;4953287;28;20038;-88
2022/07/28 00:09:11;;;;;;;5.13;1.80;;;12.90;99.90;;;;;;4948753;28;20527;-88
2022/07/28 00:11:37;;;;;;;6.20;1.80;;;13.30;99.90;;;;;;4951186;28;20046;-88
2022/07/28 00:14:03;;;;;;;4.75;1.65;;;12.90;99.90;;;;;;4949860;28;20031;-88
2022/07/28 00:16:28;;;;;;;7.07;2.00;;;12.90;99.90;;;;;;4937105;28;20252;-88
2022/07/28 00:18:54;;;;;;;5.75;1.60;;;12.80;99.90;;;;;;4954041;28;20057;-88
2022/07/28 00:21:20;;;;;;;8.63;2.05;;;12.80;99.90;;;;;;4965087;28;20113;-88
2022/07/28 00:23:45;;;;;;;5.13;1.80;;;12.80;99.90;;;;;;4954157;28;20069;-89
2022/07/28 00:26:11;;;;;;;6.25;1.80;;;12.70;99.90;;;;;;4955696;28;20034;-88
2022/07/28 00:28:37;;;;;;;5.85;1.83;;;12.70;99.90;;;;;;4932844;28;20042;-88
2022/07/28 00:31:04;;;;;;;5.00;1.60;;;12.70;99.90;;;;;;4949467;28;20038;-88
2022/07/28 00:33:30;;;;;;;5.15;1.70;;;12.70;99.90;;;;;;4970820;28;20624;-88
2022/07/28 00:35:56;;;;;;;6.88;1.90;;;13.00;99.90;;;;;;4952293;28;20519;-88
2022/07/28 00:38:22;;;;;;;6.03;1.85;;;12.80;99.90;;;;;;4942114;28;20533;-88
2022/07/28 00:43:32;;;;;;;4.38;1.60;;;12.70;99.90;;;;;;4953164;28;20054;-88
2022/07/28 00:45:57;;;;;;;4.75;1.60;;;12.60;99.90;;;;;;4934255;28;20031;-88
2022/07/28 00:48:23;;;;;;;4.05;1.58;;;12.60;99.90;;;;;;4934444;28;20034;-88
2022/07/28 00:50:50;;;;;;;5.55;1.80;;;12.50;99.90;;;;;;4949494;28;20068;-88
2022/07/28 00:53:16;;;;;;;4.95;1.70;;;12.40;99.90;;;;;;4967089;28;20043;-88
2022/07/28 00:55:42;;;;;;;5.22;1.90;;;12.40;99.90;;;;;;4951922;28;20484;-88
2022/07/28 00:58:07;;;;;;;4.63;1.80;;;12.40;99.90;;;;;;4933323;28;20035;-89
2022/07/28 01:00:33;;;;;;;5.70;1.60;;;12.30;99.90;;;;;;4954508;28;20038;-88
2022/07/28 01:03:00;;;;;;;7.00;1.83;;;12.20;99.90;;;;;;4931237;28;20556;-88
2022/07/28 01:05:54;;;;;;;7.03;2.10;;;12.20;99.90;;;;;;4952163;28;20097;-89
2022/07/28 01:08:52;;;;;;;5.63;1.88;;;12.20;99.90;;;;;;4924248;28;20046;-89
2022/07/28 01:11:30;;;;;;;6.78;2.10;;;12.20;99.90;;;;;;4965062;28;20201;-88
2022/07/28 01:14:09;;;;;;;7.57;1.90;;;12.20;99.90;;;;;;4950619;28;20463;-88
2022/07/28 01:16:43;;;;;;;6.45;2.25;;;12.20;99.90;;;;;;4968098;28;20058;-89
2022/07/28 01:19:26;;;;;;;6.40;2.20;;;12.20;99.90;;;;;;4970416;28;20169;-89
2022/07/28 01:21:54;;;;;;;6.47;2.30;;;12.20;99.90;;;;;;4965291;28;20530;-88
2022/07/28 01:24:47;;;;;;;6.55;2.13;;;12.20;99.90;;;;;;4936478;28;20051;-88
2022/07/28 01:27:40;;;;;;;7.20;2.50;;;12.20;99.90;;;;;;4916806;28;20043;-88
2022/07/28 01:30:39;;;;;;;6.15;2.10;;;12.20;99.90;;;;;;4953355;28;20047;-88
2022/07/28 01:33:20;;;;;;;5.75;2.10;;;12.20;99.90;;;;;;4959047;28;20132;-89
2022/07/28 01:36:01;;;;;;;7.75;2.25;;;12.20;99.90;;;;;;4969574;28;20042;-89
2022/07/28 01:38:30;;;;;;;7.10;2.45;;;12.20;99.90;;;;;;4955699;28;20090;-88
2022/07/28 01:40:58;;;;;;;8.07;2.30;;;12.20;99.90;;;;;;4954776;28;20039;-89
2022/07/28 01:43:27;;;;;;;6.07;2.10;;;12.20;99.90;;;;;;4953082;28;20031;-89
2022/07/28 01:45:55;;;;;;;8.48;2.35;;;12.20;99.90;;;;;;4966399;28;20118;-89
2022/07/28 01:48:23;;;;;;;8.35;2.30;;;12.30;99.90;;;;;;4953915;28;20035;-88
2022/07/28 01:50:50;;;;;;;6.78;2.30;;;12.70;99.90;;;;;;4938583;28;20049;-88
2022/07/28 01:53:17;;;;;;;5.72;2.10;;;12.50;99.90;;;;;;4938931;28;20042;-88
2022/07/28 01:55:45;;;;;;;6.90;2.17;;;12.30;99.90;;;;;;4952185;28;20046;-88
2022/07/28 01:58:12;;;;;;;8.65;2.50;;;12.30;99.90;;;;;;4969905;28;20066;-89
2022/07/28 02:00:38;;;;;;;6.05;1.90;;;12.30;99.90;;;;;;4969473;28;20043;-89
2022/07/28 02:03:06;;;;;;;7.07;2.30;;;12.30;99.90;;;;;;4955030;28;20567;-88
2022/07/28 02:05:34;;;;;;;6.38;2.10;;;12.30;99.90;;;;;;4952332;28;20206;-89
2022/07/28 02:08:02;;;;;;;8.02;2.40;;;12.30;99.90;;;;;;4953947;28;20038;-88
2022/07/28 02:10:29;;;;;;;6.47;2.17;;;12.30;99.90;;;;;;4970310;28;20043;-89
2022/07/28 02:12:56;;;;;;;5.97;2.17;;;12.30;99.90;;;;;;4954014;28;20050;-89
2022/07/28 02:15:25;;;;;;;8.30;2.30;;;12.30;99.90;;;;;;4937194;28;20038;-87
2022/07/28 02:17:51;;;;;;;6.72;2.40;;;12.30;99.90;;;;;;4937197;28;20507;-89
2022/07/28 02:20:18;;;;;;;5.25;2.03;;;12.20;99.90;;;;;;4968524;28;20396;-89
2022/07/28 02:22:45;;;;;;;7.20;2.45;;;12.20;99.90;;;;;;4966128;28;20210;-89
2022/07/28 02:25:11;;;;;;;6.75;2.40;;;12.30;99.90;;;;;;4969666;28;20098;-89
2022/07/28 02:27:43;;;;;;;8.68;2.80;;;12.30;99.90;;;;;;4952940;28;20070;-88
2022/07/28 02:30:29;;;;;;;6.63;2.27;;;12.30;99.90;;;;;;4967227;28;20035;-89
2022/07/28 02:33:08;;;;;;;8.45;2.60;;;12.40;99.90;;;;;;4968004;28;20553;-88
2022/07/28 02:35:46;;;;;;;8.07;2.88;;;12.40;99.90;;;;;;4966321;28;20408;-89
2022/07/28 02:38:19;;;;;;;7.20;2.50;;;12.50;99.90;;;;;;4967762;28;20566;-87
2022/07/28 02:40:47;;;;;;;6.83;2.33;;;12.50;99.90;;;;;;4966139;28;20074;-89
2022/07/28 02:43:15;;;;;;;8.15;2.80;;;12.50;99.90;;;;;;4966644;28;20297;-88
2022/07/28 02:45:45;;;;;;;7.63;2.30;;;12.50;99.90;;;;;;4953225;28;20436;-89
2022/07/28 02:48:16;;;;;;;6.85;2.33;;;12.50;99.90;;;;;;4967363;28;20039;-89
2022/07/28 02:50:44;;;;;;;7.13;2.42;;;12.50;99.90;;;;;;4953692;28;20188;-88
2022/07/28 02:53:11;;;;;;;5.22;1.98;;;12.50;99.90;;;;;;4950703;28;20177;-88
2022/07/28 02:55:39;;;;;;;7.05;2.50;;;12.50;99.90;;;;;;4934092;28;20046;-88
2022/07/28 02:58:07;;;;;;;6.45;2.17;;;12.50;99.90;;;;;;4935903;28;20070;-89
2022/07/28 03:00:34;;;;;;;6.68;1.95;;;12.50;99.90;;;;;;4952989;28;20050;-88
2022/07/28 03:03:00;;;;;;;6.05;2.00;;;12.50;99.90;;;;;;4966334;28;20101;-89
2022/07/28 03:05:27;;;;;;;6.20;2.30;;;12.50;99.90;;;;;;4951996;28;20070;-89
2022/07/28 03:07:53;;;;;;;6.85;2.25;;;12.50;99.90;;;;;;4935803;28;20389;-89
2022/07/28 03:10:21;;;;;;;7.43;2.30;;;12.60;99.90;;;;;;4951042;28;20031;-89
2022/07/28 03:12:47;;;;;;;6.22;2.20;;;12.60;99.90;;;;;;4947798;28;20122;-88
2022/07/28 03:15:14;;;;;;;6.75;2.30;;;12.60;99.90;;;;;;4953279;28;20185;-89
2022/07/28 03:17:40;;;;;;;6.53;2.17;;;12.80;99.90;;;;;;4953678;28;20051;-88
2022/07/28 03:20:06;;;;;;;6.45;2.17;;;12.70;99.90;;;;;;4955873;28;20122;-89
2022/07/28 03:22:32;;;;;;;7.72;2.20;;;12.70;99.90;;;;;;4938213;28;20132;-89
2022/07/28 03:24:59;;;;;;;6.20;2.50;;;12.70;99.90;;;;;;4958037;28;20058;-88
2022/07/28 03:27:33;;;;;;;8.02;2.72;;;13.00;99.90;;;;;;4961728;28;20027;-89
2022/07/28 03:30:13;;;;;;;7.47;2.80;;;12.80;99.90;;;;;;4958716;28;20039;-88
2022/07/28 03:32:44;;;;;;;7.70;2.67;;;12.80;99.90;;;;;;4966919;28;20548;-89
2022/07/28 03:35:11;;;;;;;9.35;3.78;;;12.90;99.90;;;;;;4968904;28;20122;-89
2022/07/28 03:37:52;;;;;;;10.25;4.25;;;12.80;99.90;;;;;;4936548;28;20043;-89
2022/07/28 03:40:20;;;;;;;8.55;4.05;;;12.90;99.90;;;;;;4951199;28;20424;-88
2022/07/28 03:42:47;;;;;;;7.97;3.78;;;12.90;99.90;;;;;;4953258;28;20046;-88
2022/07/28 03:45:14;;;;;;;9.23;3.65;;;12.90;99.90;;;;;;4951094;28;20074;-88
2022/07/28 03:47:48;;;;;;;8.48;3.17;;;13.00;99.90;;;;;;4954083;28;20039;-89
2022/07/28 03:50:14;;;;;;;8.05;3.00;;;13.00;99.90;;;;;;4968606;28;20498;-88
2022/07/28 03:52:40;;;;;;;7.78;2.60;;;13.00;99.90;;;;;;4952682;28;20051;-89
2022/07/28 03:55:07;;;;;;;8.15;3.00;;;13.00;99.90;;;;;;4951036;28;20143;-88
2022/07/28 03:57:33;;;;;;;9.75;3.00;;;13.00;99.90;;;;;;4950735;28;20054;-88
2022/07/28 03:59:58;;;;;;;8.80;2.85;;;13.20;99.90;;;;;;4935827;28;20125;-89
2022/07/28 04:02:24;;;;;;;6.78;2.50;;;13.10;99.90;;;;;;4967518;28;20103;-88
2022/07/28 04:04:50;;;;;;;6.68;2.40;;;13.10;99.90;;;;;;4952731;28;20054;-89
2022/07/28 04:07:15;;;;;;;10.32;2.88;;;13.10;99.90;;;;;;4950210;28;20041;-88
2022/07/28 04:09:41;;;;;;;7.47;2.50;;;13.00;99.90;;;;;;4950949;28;20034;-88
2022/07/28 04:12:07;;;;;;;6.40;2.45;;;13.00;99.90;;;;;;4935370;28;20125;-88
2022/07/28 04:14:33;;;;;;;7.97;2.20;;;12.90;99.90;;;;;;4968084;28;20054;-89
2022/07/28 04:16:58;;;;;;;6.60;2.40;;;13.00;99.90;;;;;;4951799;28;20389;-89
2022/07/28 04:19:24;;;;;;;9.10;2.33;;;12.80;99.90;;;;;;4967253;28;20038;-89
2022/07/28 04:21:49;;;;;;;8.65;2.30;;;12.80;99.90;;;;;;4951941;28;20105;-89
2022/07/28 04:24:15;;;;;;;7.95;2.50;;;12.80;99.90;;;;;;4933384;28;20417;-88
2022/07/28 04:26:41;;;;;;;7.15;2.30;;;12.80;99.90;;;;;;4951981;28;20057;-88
2022/07/28 04:29:07;;;;;;;7.75;2.50;;;12.80;99.90;;;;;;4967806;28;20386;-88
2022/07/28 04:31:32;;;;;;;7.55;2.70;;;12.80;99.90;;;;;;4966203;28;20158;-88
2022/07/28 04:33:58;;;;;;;6.82;2.47;;;12.80;99.90;;;;;;4935093;28;20090;-88
2022/07/28 04:36:25;;;;;;;7.28;2.45;;;12.80;99.90;;;;;;4952602;28;20121;-89
2022/07/28 04:38:50;;;;;;;7.60;2.80;;;12.90;99.90;;;;;;4934400;28;20405;-88
2022/07/28 04:41:16;;;;;;;6.82;2.50;;;12.90;99.90;;;;;;4949843;28;20042;-88
2022/07/28 04:43:42;;;;;;;8.00;2.45;;;12.90;99.90;;;;;;4948120;28;21173;-88
2022/07/28 04:46:07;;;;;;;7.30;2.75;;;13.00;99.90;;;;;;4929853;28;20035;-88
2022/07/28 04:48:33;;;;;;;7.32;2.65;;;13.00;99.90;;;;;;4935109;28;20169;-88
2022/07/28 04:50:59;;;;;;;6.32;2.50;;;13.10;99.90;;;;;;4936004;28;20030;-88
2022/07/28 04:53:24;;;;;;;7.50;2.70;;;13.10;99.90;;;;;;4938342;28;20476;-87
2022/07/28 04:55:51;;;;;;;6.85;2.55;;;13.20;99.90;;;;;;4949031;28;20040;-88
2022/07/28 04:58:17;;;;;;;7.75;2.42;;;13.20;99.90;;;;;;4953972;28;20046;-88
2022/07/28 05:00:44;;;;;;;9.90;2.90;;;13.20;99.90;;;;;;4968424;28;20043;-88
2022/07/28 05:03:11;;;;;;;6.82;2.50;;;13.30;99.90;;;;;;4934548;28;20211;-88
2022/07/28 05:05:36;;;;;;;7.63;2.40;;;13.20;99.90;;;;;;4952297;28;20041;-88
2022/07/28 05:08:02;;;;;;;6.75;2.63;;;13.30;99.90;;;;;;4954181;28;20419;-88
2022/07/28 05:10:28;;;;;;;8.70;2.53;;;13.40;99.90;;;;;;4954618;28;20066;-88
2022/07/28 05:12:54;;;;;;;8.18;2.55;;;13.40;99.90;;;;;;4936394;29;20148;-88
2022/07/28 05:15:19;;;;;;;10.35;2.70;;;13.40;99.90;;;;;;4969195;28;20035;-88
2022/07/28 05:17:45;;;;;;;7.38;2.53;;;13.50;99.90;;;;;;4972071;28;20081;-88
2022/07/28 05:20:12;;;;;;;10.00;3.00;;;13.50;99.90;;;;;;4953366;28;20034;-88
2022/07/28 05:22:46;;;;;;;7.65;2.58;;;13.50;99.90;;;;;;4955859;28;20150;-88
2022/07/28 05:25:17;;;;;;;7.70;2.78;;;13.60;99.90;;;;;;4969007;28;20047;-88
2022/07/28 05:27:44;;;;;;;6.85;2.30;;;13.70;99.90;;;;;;4937668;28;20496;-87
2022/07/28 05:30:10;;;;;;;7.07;2.30;;;13.70;99.90;;;;;;4950792;28;20374;-87
2022/07/28 05:32:36;;;;;;;7.75;2.53;;;13.80;99.90;;;;;;4959039;28;20134;-88
2022/07/28 05:35:03;;;;;;;7.72;2.55;;;13.90;99.90;;;;;;4934899;28;20045;-88
2022/07/28 05:37:31;;;;;;;7.63;2.42;;;13.80;99.90;;;;;;4935949;28;20031;-88
2022/07/28 05:39:56;;;;;;;6.13;2.30;;;14.00;99.90;;;;;;4970967;28;20049;-87
2022/07/28 05:42:24;;;;;;;7.50;2.33;;;14.00;99.90;;;;;;4955480;28;20050;-88
2022/07/28 05:44:49;;;;;;;38.88;5.00;;;14.10;99.90;;;;;;4939643;28;20046;-88
2022/07/28 05:47:15;;;;;;;7.40;2.20;;;14.10;99.90;;;;;;4939875;28;20118;-88
2022/07/28 05:49:41;;;;;;;7.10;2.53;;;14.20;99.90;;;;;;4955313;28;20042;-88
2022/07/28 05:52:06;;;;;;;8.10;2.63;;;14.20;99.90;;;;;;4956133;28;20039;-88
2022/07/28 05:54:32;;;;;;;8.43;2.33;;;14.30;99.90;;;;;;4956200;28;20046;-88
2022/07/28 05:56:58;;;;;;;6.93;2.50;;;14.40;99.90;;;;;;4939821;28;20134;-88
2022/07/28 05:59:23;;;;;;;7.43;2.42;;;14.40;99.90;;;;;;4953853;28;20042;-88
2022/07/28 06:01:49;;;;;;;7.22;2.25;;;14.50;99.90;;;;;;4948972;28;20104;-87
2022/07/28 06:04:15;;;;;;;9.02;2.53;;;14.50;99.90;;;;;;4969905;28;20492;-87
2022/07/28 06:06:40;;;;;;;9.32;2.72;;;14.50;99.90;;;;;;4954643;28;20045;-87
2022/07/28 06:09:06;;;;;;;8.25;3.15;;;14.60;99.90;;;;;;4937527;28;20053;-89
2022/07/28 06:11:32;;;;;;;10.48;3.47;;;14.70;99.90;;;;;;4934773;28;20039;-87
2022/07/28 06:13:57;;;;;;;8.88;3.58;;;14.70;99.90;;;;;;4938864;28;20049;-90
2022/07/28 06:16:23;;;;;;;7.82;3.03;;;14.70;99.90;;;;;;4937173;28;20496;-89
2022/07/28 06:18:49;;;;;;;8.68;3.58;;;14.80;99.90;;;;;;4955138;28;20121;-90
2022/07/28 06:21:15;;;;;;;11.05;4.15;;;14.80;99.90;;;;;;4939262;28;20038;-89
2022/07/28 06:23:41;;;;;;;10.32;3.65;;;14.80;99.90;;;;;;4937403;28;20420;-88
2022/07/28 06:26:06;;;;;;;7.78;2.88;;;14.90;99.90;;;;;;4954340;28;20070;-89
2022/07/28 06:28:32;;;;;;;7.28;2.47;;;15.00;99.90;;;;;;4938632;28;20066;-89
2022/07/28 06:30:58;;;;;;;7.35;2.70;;;15.00;99.90;;;;;;4955690;28;20114;-89
2022/07/28 06:33:24;;;;;;;8.32;2.42;;;15.00;99.90;;;;;;4954371;28;20093;-90
2022/07/28 06:35:49;;;;;;;8.52;2.60;;;15.10;99.90;;;;;;4954942;28;20451;-87
2022/07/28 06:38:15;;;;;;;7.32;2.65;;;15.10;99.90;;;;;;4954118;28;20035;-87
2022/07/28 06:40:42;;;;;;;7.80;2.65;;;15.10;99.90;;;;;;4955283;28;20065;-87
2022/07/28 06:43:07;;;;;;;6.95;2.40;;;15.20;99.90;;;;;;4936964;28;20085;-88
2022/07/28 06:45:33;;;;;;;9.43;2.60;;;15.20;99.90;;;;;;4954153;28;20043;-89
2022/07/28 06:47:59;;;;;;;7.22;2.25;;;15.30;99.90;;;;;;4938527;28;20043;-88
2022/07/28 06:50:25;;;;;;;7.90;2.60;;;15.30;99.90;;;;;;4970684;28;20523;-89
2022/07/28 06:52:51;;;;;;;11.55;2.60;;;15.30;99.90;;;;;;4969144;28;20493;-86
2022/07/28 06:55:16;;;;;;;9.90;2.40;;;15.40;99.90;;;;;;4936440;28;20129;-87
2022/07/28 06:57:42;;;;;;;9.82;2.80;;;15.40;99.90;;;;;;4953675;28;20049;-86
2022/07/28 07:00:11;;;;;;;7.22;2.47;;;15.30;99.90;;;;;;4951785;28;20126;-86
2022/07/28 07:02:38;;;;;;;8.40;2.47;;;15.30;99.90;;;;;;4953169;28;20101;-87
2022/07/28 07:05:05;;;;;;;9.43;2.60;;;15.30;99.90;;;;;;4953230;28;20591;-89
2022/07/28 07:07:30;;;;;;;7.55;2.72;;;15.20;99.90;;;;;;4953408;28;20118;-88
2022/07/28 07:09:56;;;;;;;7.47;2.67;;;15.10;99.90;;;;;;4953202;28;20039;-88
2022/07/28 07:12:22;;;;;;;8.68;3.10;;;15.00;99.90;;;;;;4938333;28;20039;-89
2022/07/28 07:14:47;;;;;;;8.55;2.78;;;14.90;99.90;;;;;;4951081;28;20043;-89
2022/07/28 07:17:13;;;;;;;8.88;3.00;;;14.80;99.90;;;;;;4967861;28;20038;-88
2022/07/28 07:19:39;;;;;;;8.30;2.90;;;14.80;99.90;;;;;;4952637;28;20034;-90
2022/07/28 07:22:04;;;;;;;6.82;2.80;;;14.70;99.90;;;;;;4970175;28;20047;-87
2022/07/28 07:24:30;;;;;;;9.13;2.90;;;14.70;99.90;;;;;;4936707;28;20423;-87
2022/07/28 07:26:56;;;;;;;7.72;2.50;;;14.70;99.90;;;;;;4936054;28;20050;-87
2022/07/28 07:29:22;;;;;;;8.63;2.90;;;14.70;99.90;;;;;;4937994;28;20047;-89
2022/07/28 07:31:48;;;;;;;8.48;2.72;;;14.70;99.90;;;;;;4953739;28;20488;-88
2022/07/28 07:34:15;;;;;;;7.05;2.20;;;14.70;99.90;;;;;;4936216;28;20098;-88
2022/07/28 07:36:40;;;;;;;7.25;2.20;;;14.70;99.90;;;;;;4953309;28;20123;-89
2022/07/28 07:39:06;;;;;;;8.43;2.20;;;14.70;99.90;;;;;;4936878;28;20167;-88
2022/07/28 07:41:32;;;;;;;5.40;2.05;;;14.80;99.90;;;;;;4938231;28;20043;-87
2022/07/28 07:43:57;;;;;;;8.20;2.15;;;14.90;99.90;;;;;;4952860;28;20567;-90
2022/07/28 07:46:23;;;;;;;6.20;2.10;;;14.90;99.90;;;;;;4935614;28;20077;-87
2022/07/28 07:48:49;;;;;;;4.88;1.80;;;15.00;99.90;;;;;;4930729;28;20082;-88
2022/07/28 07:51:14;;;;;;;4.82;1.70;;;15.00;99.90;;;;;;4952608;28;20046;-88
2022/07/28 07:53:40;;;;;;;7.30;2.00;;;15.10;99.90;;;;;;4936927;28;20044;-89
2022/07/28 07:56:06;;;;;;;5.70;1.80;;;15.20;99.90;;;;;;4952974;28;20050;-88
2022/07/28 07:58:31;;;;;;;6.15;1.70;;;15.30;99.90;;;;;;4934417;28;20459;-87
2022/07/28 08:00:57;;;;;;;5.32;1.85;;;15.40;99.90;;;;;;4947133;28;20125;-87
2022/07/28 08:03:23;;;;;;;6.75;1.80;;;15.50;99.90;;;;;;4967966;28;20053;-88
2022/07/28 08:05:50;;;;;;;6.25;1.88;;;15.60;99.90;;;;;;4936089;28;20093;-89
2022/07/28 08:08:16;;;;;;;7.20;1.73;;;15.70;99.90;;;;;;4952246;28;20042;-90
2022/07/28 08:10:41;;;;;;;6.05;1.85;;;15.80;99.90;;;;;;4951078;28;20488;-88
2022/07/28 08:13:07;;;;;;;4.38;1.55;;;15.90;99.90;;;;;;4950167;28;20062;-86
2022/07/28 08:15:33;;;;;;;5.07;1.50;;;16.00;99.90;;;;;;4951808;28;20085;-87
2022/07/28 08:18:00;;;;;;;4.13;1.50;;;16.10;99.90;;;;;;4966743;28;20086;-88
2022/07/28 08:20:26;;;;;;;5.47;1.40;;;16.30;99.90;;;;;;4936823;28;20586;-89
2022/07/28 08:22:54;;;;;;;6.63;1.45;;;16.40;99.90;;;;;;4954287;28;20039;-89
2022/07/28 08:25:20;;;;;;;3.55;1.50;;;16.50;99.90;;;;;;4938134;28;20051;-88
2022/07/28 08:27:46;;;;;;;4.68;1.60;;;16.60;99.90;;;;;;4956298;28;20042;-86
2022/07/28 08:30:18;;;;;;;4.60;1.55;;;16.70;99.90;;;;;;4979075;28;20097;-88
2022/07/28 08:32:43;;;;;;;3.65;1.45;;;16.80;99.90;;;;;;4969090;28;20385;-89
2022/07/28 08:35:09;;;;;;;3.83;1.27;;;16.90;99.90;;;;;;4957094;28;20078;-89
2022/07/28 08:37:38;;;;;;;4.13;1.50;;;17.00;99.90;;;;;;4956758;28;20050;-90
2022/07/28 08:40:05;;;;;;;3.75;1.48;;;17.10;99.90;;;;;;4937141;28;20043;-87
2022/07/28 08:42:42;;;;;;;4.50;1.38;;;17.20;99.90;;;;;;4938810;28;20055;-89
2022/07/28 08:45:10;;;;;;;4.80;1.40;;;17.30;99.90;;;;;;4963507;28;20051;-90
2022/07/28 08:47:37;;;;;;;5.00;1.52;;;17.40;99.90;;;;;;4956764;28;20256;-89
2022/07/28 08:50:04;;;;;;;2.25;1.33;;;17.50;99.90;;;;;;4955215;28;20043;-90
2022/07/28 08:52:31;;;;;;;4.63;1.40;;;17.60;99.90;;;;;;4969495;28;20045;-88
2022/07/28 08:55:01;;;;;;;4.68;1.52;;;17.60;99.90;;;;;;4952684;28;20799;-90
2022/07/28 08:57:33;;;;;;;5.68;1.30;;;17.70;99.90;;;;;;4955844;28;20050;-88
2022/07/28 08:59:59;;;;;;;4.18;1.40;;;17.70;99.90;;;;;;4955840;28;20082;-89
2022/07/28 09:02:27;;;;;;;4.63;1.50;;;17.80;99.90;;;;;;4937537;28;20097;-89
2022/07/28 09:04:58;;;;;;;5.25;1.60;;;17.90;99.90;;;;;;4971062;28;20070;-90
2022/07/28 09:07:25;;;;;;;5.57;1.50;;;18.00;99.90;;;;;;4955097;28;20428;-87
2022/07/28 09:09:52;;;;;;;3.75;1.55;;;18.00;99.90;;;;;;4953863;28;20046;-90
2022/07/28 09:12:17;;;;;;;5.43;1.50;;;18.10;99.90;;;;;;4954050;28;20047;-90
2022/07/28 09:14:43;;;;;;;8.80;1.60;;;18.10;99.90;;;;;;4940205;28;20097;-87
2022/07/28 09:17:09;;;;;;;4.70;1.42;;;18.20;99.90;;;;;;4940135;28;20050;-87
2022/07/28 09:19:38;;;;;;;7.65;1.77;;;18.20;99.90;;;;;;4936609;28;20141;-88
2022/07/28 09:22:06;;;;;;;3.95;1.40;;;18.20;99.90;;;;;;4940223;28;20395;-90
2022/07/28 09:24:32;;;;;;;5.00;1.40;;;18.20;99.90;;;;;;4972031;28;20051;-90
2022/07/28 09:27:00;;;;;;;5.95;1.65;;;18.30;99.90;;;;;;4955606;28;20554;-88
2022/07/28 09:29:26;;;;;;;5.45;1.50;;;18.30;99.90;;;;;;4955120;28;20031;-90
2022/07/28 09:31:52;;;;;;;4.93;1.60;;;18.30;99.90;;;;;;4956073;28;20050;-88
2022/07/28 09:34:18;;;;;;;3.85;1.27;;;18.20;99.90;;;;;;4955856;28;20039;-89
2022/07/28 09:36:44;;;;;;;6.85;1.30;;;18.20;99.90;;;;;;4956145;28;20507;-88
2022/07/28 09:39:10;;;;;;;6.82;1.20;;;18.20;99.90;;;;;;4937917;28;20117;-88
2022/07/28 09:41:51;;;;;;;5.20;1.70;;;18.30;99.90;;;;;;4955273;28;20039;-88
2022/07/28 09:44:22;;;;;;;4.05;1.38;;;18.40;99.90;;;;;;4950737;28;20042;-88
2022/07/28 09:46:48;;;;;;;5.88;1.63;;;18.40;99.90;;;;;;4952350;28;20102;-89
2022/07/28 09:49:14;;;;;;;6.78;1.40;;;18.40;99.90;;;;;;4971727;28;20404;-89
2022/07/28 09:51:40;;;;;;;5.32;1.50;;;18.50;99.90;;;;;;4954066;28;20034;-89
2022/07/28 09:54:14;;;;;;;4.07;1.50;;;18.50;99.90;;;;;;4971825;28;20039;-89
2022/07/28 09:56:42;;;;;;;4.43;1.50;;;18.60;99.90;;;;;;4971953;28;20050;-90
2022/07/28 09:59:10;;;;;;;4.20;1.30;;;18.70;99.90;;;;;;4937199;28;20291;-89
2022/07/28 10:01:51;;;;;;;3.63;1.30;;;18.70;99.90;;;;;;4952280;28;20495;-89
2022/07/28 10:04:37;;;;;;;5.72;1.50;;;18.70;99.90;;;;;;4955686;28;20038;-88
2022/07/28 10:07:12;;;;;;;4.70;1.50;;;18.80;99.90;;;;;;4954192;28;20042;-89
2022/07/28 10:09:39;;;;;;;4.70;1.48;;;18.70;99.90;;;;;;4971763;28;20038;-89
2022/07/28 10:12:21;;;;;;;6.05;1.63;;;18.60;99.90;;;;;;4952476;28;20062;-89
2022/07/28 10:14:49;;;;;;;4.10;1.50;;;18.60;99.90;;;;;;4955613;28;20043;-88
2022/07/28 10:17:29;;;;;;;3.53;1.30;;;18.50;99.90;;;;;;4971057;28;20381;-89
2022/07/28 10:20:04;;;;;;;3.60;1.50;;;18.50;99.90;;;;;;4955493;28;20101;-89
2022/07/28 10:22:32;;;;;;;6.97;1.40;;;18.50;99.90;;;;;;4935438;28;20245;-89
2022/07/28 10:25:06;;;;;;;5.15;1.50;;;18.70;99.90;;;;;;4952789;28;20082;-89
2022/07/28 10:27:32;;;;;;;4.28;1.42;;;18.70;99.90;;;;;;4935604;28;20791;-89
2022/07/28 10:29:59;;;;;;;3.35;1.27;;;18.80;99.90;;;;;;4964901;28;20042;-89
2022/07/28 10:32:28;;;;;;;5.90;1.55;;;18.90;99.90;;;;;;4953796;28;20035;-89
2022/07/28 10:35:05;;;;;;;17.33;1.70;;;19.10;99.90;;;;;;4954202;28;20077;-89
2022/07/28 10:37:37;;;;;;;5.43;1.40;;;19.10;99.90;;;;;;4979995;28;20042;-89
2022/07/28 10:40:06;;;;;;;4.18;1.33;;;19.00;99.90;;;;;;4953417;28;20285;-89
2022/07/28 10:42:37;;;;;;;3.90;1.20;;;19.00;99.90;;;;;;4953968;28;20046;-87
2022/07/28 10:45:04;;;;;;;3.47;1.33;;;18.90;99.90;;;;;;4955113;28;20117;-87
2022/07/28 10:47:29;;;;;;;4.88;1.30;;;18.80;99.90;;;;;;4953491;28;20278;-88
2022/07/28 10:49:56;;;;;;;6.63;1.60;;;18.80;99.90;;;;;;4970716;28;20510;-89
2022/07/28 10:52:23;;;;;;;4.72;1.30;;;18.80;99.90;;;;;;4954019;28;20046;-90
2022/07/28 10:55:00;;;;;;;4.78;1.30;;;18.70;99.90;;;;;;4953999;28;20039;-90
2022/07/28 10:57:29;;;;;;;2.97;1.40;;;18.60;99.90;;;;;;4952415;28;20054;-89
2022/07/28 11:00:19;;;;;;;3.78;1.17;;;18.60;99.90;;;;;;4954872;28;20097;-88
2022/07/28 11:02:51;;;;;;;3.22;1.30;;;18.50;99.90;;;;;;4952863;28;20393;-90
2022/07/28 11:05:38;;;;;;;3.78;1.40;;;18.30;99.90;;;;;;4949407;28;20145;-88
2022/07/28 11:08:06;;;;;;;4.43;1.40;;;18.20;99.90;;;;;;4953736;28;20401;-89
2022/07/28 11:10:45;;;;;;;5.03;1.60;;;18.00;99.90;;;;;;4969403;28;20047;-91
2022/07/28 11:13:24;;;;;;;4.10;1.40;;;18.00;99.90;;;;;;4968965;28;20049;-89
2022/07/28 11:15:50;;;;;;;4.72;1.60;;;17.90;99.90;;;;;;4970851;28;20042;-89
2022/07/28 11:18:16;;;;;;;4.28;1.38;;;17.80;99.90;;;;;;4937277;28;20547;-88
2022/07/28 11:20:51;;;;;;;4.72;1.40;;;17.80;99.90;;;;;;4930080;28;20043;-88
2022/07/28 11:23:52;;;;;;;3.72;1.33;;;17.80;99.90;;;;;;4968843;28;20038;-90
2022/07/28 11:26:23;;;;;;;3.67;1.27;;;17.80;99.90;;;;;;4967924;28;20088;-89
2022/07/28 11:29:07;;;;;;;5.82;1.63;;;17.80;99.90;;;;;;4969841;28;20515;-90
2022/07/28 11:31:55;;;;;;;9.20;1.80;;;17.80;99.90;;;;;;4953334;28;20050;-89
2022/07/28 11:34:24;;;;;;;4.57;1.60;;;17.90;99.90;;;;;;4934762;28;20073;-89
2022/07/28 11:37:09;;;;;;;5.22;1.50;;;17.90;99.90;;;;;;4936532;28;20033;-89
2022/07/28 11:39:39;;;;;;;4.75;1.27;;;18.10;99.90;;;;;;4937475;28;20046;-89
2022/07/28 11:42:23;;;;;;;3.20;1.30;;;18.20;99.90;;;;;;4950811;28;20041;-88
2022/07/28 11:44:49;;;;;;;2.17;1.30;;;18.30;99.90;;;;;;4952265;28;20038;-91
2022/07/28 11:47:16;;;;;;;6.85;1.40;;;18.40;99.90;;;;;;4952648;28;20419;-88
2022/07/28 11:50:05;;;;;;;7.97;1.83;;;18.60;99.90;;;;;;4970013;28;20057;-90
2022/07/28 11:52:31;;;;;;;4.55;1.52;;;18.70;99.90;;;;;;4952278;28;20050;-90
2022/07/28 11:54:57;;;;;;;3.72;1.40;;;18.90;99.90;;;;;;4954013;28;20040;-88
2022/07/28 11:57:25;;;;;;;4.65;1.20;;;19.10;99.90;;;;;;4969204;28;20046;-88
2022/07/28 11:59:53;;;;;;;3.90;1.20;;;19.40;99.90;;;;;;4952403;28;20493;-89
2022/07/28 12:02:29;;;;;;;5.32;1.20;;;19.40;99.90;;;;;;4968798;28;20038;-90
2022/07/28 12:04:58;;;;;;;5.30;1.40;;;19.60;99.90;;;;;;4946935;28;20432;-89
2022/07/28 12:07:36;;;;;;;2.30;1.13;;;19.70;99.90;;;;;;4951296;28;20066;-89
2022/07/28 12:10:39;;;;;;;3.05;1.27;;;19.80;99.90;;;;;;4953344;28;20049;-89
2022/07/28 12:13:06;;;;;;;3.63;1.25;;;19.90;99.90;;;;;;4953292;28;20037;-89
2022/07/28 12:15:33;;;;;;;6.38;1.40;;;19.90;99.90;;;;;;4954808;28;20539;-90
2022/07/28 12:18:00;;;;;;;5.95;1.55;;;20.00;99.90;;;;;;4966918;28;20039;-87
2022/07/28 12:20:33;;;;;;;5.72;1.40;;;20.10;99.90;;;;;;4937341;28;20126;-90
2022/07/28 12:23:05;;;;;;;3.97;1.30;;;20.20;99.90;;;;;;4933370;28;20089;-90
2022/07/28 12:25:40;;;;;;;4.95;1.30;;;20.20;99.90;;;;;;4951092;28;20512;-91
2022/07/28 12:28:14;;;;;;;2.78;1.30;;;20.20;99.90;;;;;;4952902;28;20046;-89
2022/07/28 12:30:40;;;;;;;4.03;1.30;;;20.20;99.90;;;;;;4967239;28;20043;-88
2022/07/28 12:33:21;;;;;;;2.88;1.17;;;20.30;99.90;;;;;;4932885;28;20039;-90
2022/07/28 12:35:49;;;;;;;4.03;1.52;;;20.30;99.90;;;;;;4965462;28;20058;-91
2022/07/28 12:38:15;;;;;;;4.75;1.40;;;20.40;99.90;;;;;;4950292;28;20408;-87
2022/07/28 12:40:42;;;;;;;4.60;1.40;;;20.50;99.90;;;;;;4951857;28;20047;-88
2022/07/28 12:43:08;;;;;;;5.38;1.60;;;20.80;99.90;;;;;;4967173;28;20049;-89
2022/07/28 12:45:43;;;;;;;3.47;1.52;;;21.00;99.90;;;;;;4937472;28;20038;-88
2022/07/28 12:48:09;;;;;;;3.92;1.67;;;21.00;99.90;;;;;;4937335;28;20042;-87
2022/07/28 12:50:38;;;;;;;8.18;1.92;;;21.00;99.90;;;;;;4954371;28;20035;-88
2022/07/28 12:53:09;;;;;;;3.28;1.20;;;21.10;99.90;;;;;;4954416;28;20051;-89
2022/07/28 12:55:37;;;;;;;5.07;1.40;;;21.20;99.90;;;;;;4971536;28;20074;-90
2022/07/28 12:58:04;;;;;;;4.38;1.30;;;21.20;99.90;;;;;;4977762;28;20049;-87